Capitol Logistics 365


KRFD
Chicago/Rockford International Airport
Rockford, Illinois, US
CYHZ
Robert L. Stanfield International Airport
Halifax, , CA

Route Details

Aircraft Information
Primary: Boeing 767-300BDSF
Backup: Not Available
Route Data
Distance: 1123nm
Sched. Duration: 2h 45m
Avg. Duration: 2h 44m (-1m)
Times Flown: 12
Recm'd Route: RONIC ADALE FNT Q822 ALLEX FUNDY3
Planned Altitude: 35,000ft
Origin Wx: KRFD 190054Z 30009KT 10SM OVC029 M03/M09 A3002 RMK AO2 SLP177 T10331094 $
Dest. Wx: CYHZ 190100Z 24011KT 15SM SCT045 BKN120 01/M01 A2948 RMK SC3AC3 SLP989
Notes:

Financial History
Total Freight: 508,703lbs
Average Load: 42,392lbs/flt
Fuel Used: 290,921lbs
Avg. Fuel Used: 24,243lbs/flt
Fuel Expense: $213,748
Avg. Fuel Expense: $17,812
Avg. Fuel Cost: $0.74/lbs
Total Gross Income: $737,969
Pilot Pay: $2,768
Total Expenses: $80,325
Total Revenue: $435,917
Average Revenue: $61,497.41